createdAt,value
2018-09-13T00:00:24.216Z,367.10
2018-09-13T00:02:52.722Z,359.17
2018-09-13T00:05:21.237Z,380.73
2018-09-13T00:07:49.741Z,386.57
2018-09-13T00:10:18.256Z,395.70
2018-09-13T00:12:46.782Z,418.70
2018-09-13T00:15:15.268Z,420.13
2018-09-13T00:17:43.783Z,450.37
2018-09-13T00:20:12.272Z,458.97
2018-09-13T00:22:40.761Z,453.97
2018-09-13T00:25:09.273Z,449.00
2018-09-13T00:27:37.800Z,446.47
2018-09-13T00:30:06.328Z,434.63
2018-09-13T00:32:34.891Z,426.33
2018-09-13T00:35:03.410Z,444.77
2018-09-13T00:37:31.938Z,446.50
2018-09-13T00:40:00.505Z,452.93
2018-09-13T00:42:29.023Z,444.23
2018-09-13T00:44:57.513Z,458.87
2018-09-13T00:47:26.051Z,458.40
2018-09-13T00:49:54.572Z,444.33
2018-09-13T00:52:23.077Z,436.93
2018-09-13T00:54:51.583Z,427.83
2018-09-13T00:57:20.109Z,447.47
2018-09-13T00:59:48.603Z,438.03
2018-09-13T01:02:17.133Z,439.33
2018-09-13T01:04:45.634Z,441.53
2018-09-13T01:07:14.149Z,447.97
2018-09-13T01:09:42.616Z,449.07
2018-09-13T01:12:11.101Z,458.40
2018-09-13T01:14:39.644Z,453.27
2018-09-13T01:17:08.144Z,461.73
2018-09-13T01:19:36.697Z,492.03
2018-09-13T01:22:05.245Z,486.00
2018-09-13T01:24:33.762Z,500.87
2018-09-13T01:27:02.272Z,498.70
2018-09-13T01:29:30.853Z,497.27
2018-09-13T01:31:59.342Z,491.40
2018-09-13T01:34:27.852Z,504.37
2018-09-13T01:36:56.381Z,503.10
2018-09-13T01:39:24.862Z,507.90
2018-09-13T01:41:53.404Z,536.80
2018-09-13T01:44:22.158Z,528.13
2018-09-13T01:46:50.772Z,510.70
2018-09-13T01:49:19.260Z,510.20
2018-09-13T01:51:47.773Z,519.17
2018-09-13T01:54:16.246Z,553.77
2018-09-13T01:56:44.769Z,568.07
2018-09-13T01:59:13.303Z,569.93
2018-09-13T02:01:41.853Z,569.07
2018-09-13T02:04:10.432Z,561.17
2018-09-13T02:06:38.948Z,580.37
2018-09-13T02:09:09.213Z,560.73
2018-09-13T02:11:37.764Z,566.77
2018-09-13T02:14:06.268Z,567.43
2018-09-13T02:16:34.812Z,565.50
2018-09-13T02:19:03.295Z,584.43
2018-09-13T02:21:31.823Z,563.90
2018-09-13T02:24:00.333Z,566.77
2018-09-13T02:26:28.876Z,560.33
2018-09-13T02:28:57.387Z,569.60
2018-09-13T02:31:25.907Z,557.77
2018-09-13T02:33:54.376Z,562.43
2018-09-13T02:36:22.900Z,548.60
2018-09-13T02:38:51.385Z,546.13
2018-09-13T02:41:19.901Z,549.17
2018-09-13T02:43:48.449Z,548.80
2018-09-13T02:46:16.947Z,550.40
2018-09-13T02:48:45.510Z,567.97
2018-09-13T02:51:14.043Z,567.80
2018-09-13T02:53:42.565Z,568.63
2018-09-13T02:56:11.043Z,557.93
2018-09-13T02:58:39.577Z,552.17
2018-09-13T03:01:08.125Z,545.50
2018-09-13T03:03:36.604Z,538.80
2018-09-13T03:06:05.149Z,528.63
2018-09-13T03:08:33.669Z,509.47
2018-09-13T03:11:02.187Z,500.13
2018-09-13T03:13:30.702Z,493.43
2018-09-13T03:15:59.233Z,475.53
2018-09-13T03:18:27.737Z,476.03
2018-09-13T03:20:56.289Z,448.87
2018-09-13T03:23:24.809Z,446.53
2018-09-13T03:25:53.324Z,453.27
2018-09-13T03:28:21.840Z,431.90
2018-09-13T03:30:50.370Z,433.07
2018-09-13T03:33:18.904Z,422.37
2018-09-13T03:35:47.416Z,414.77
2018-09-13T03:38:15.904Z,432.27
2018-09-13T03:40:44.434Z,409.80
2018-09-13T03:43:12.979Z,405.90
2018-09-13T03:45:41.490Z,371.93
2018-09-13T03:48:10.001Z,364.77
2018-09-13T03:50:38.509Z,360.73
2018-09-13T03:53:07.056Z,369.17
2018-09-13T03:55:41.984Z,354.83
2018-09-13T03:58:10.473Z,355.40
2018-09-13T04:00:39.009Z,380.03
2018-09-13T04:03:07.534Z,385.67
2018-09-13T04:05:36.027Z,394.27
2018-09-13T04:08:04.668Z,395.27
2018-09-13T04:10:33.201Z,388.53
2018-09-13T04:13:01.752Z,366.00
2018-09-13T04:15:30.269Z,357.07
2018-09-13T04:17:58.854Z,354.67
2018-09-13T04:20:27.337Z,380.20
2018-09-13T04:22:55.857Z,362.17
2018-09-13T04:25:24.341Z,376.37
2018-09-13T04:27:52.848Z,372.87
2018-09-13T04:30:21.397Z,346.47
2018-09-13T04:32:49.872Z,317.87
2018-09-13T04:35:18.436Z,276.87
2018-09-13T04:37:46.943Z,263.27
2018-09-13T04:40:15.524Z,250.20
2018-09-13T04:42:43.992Z,253.73
2018-09-13T04:45:12.493Z,261.20
2018-09-13T04:47:40.979Z,260.77
2018-09-13T04:50:09.544Z,240.17
2018-09-13T04:52:38.054Z,192.40
2018-09-13T04:55:06.592Z,186.50
2018-09-13T04:57:35.108Z,159.53
2018-09-13T05:00:03.627Z,164.60
2018-09-13T05:02:32.188Z,183.67
2018-09-13T05:05:00.716Z,165.80
2018-09-13T05:07:29.223Z,169.47
2018-09-13T05:09:57.690Z,181.43
2018-09-13T05:12:26.214Z,196.63
2018-09-13T05:14:54.700Z,162.30
2018-09-13T05:17:23.212Z,124.17
2018-09-13T05:19:51.744Z,137.07
2018-09-13T05:22:20.264Z,138.27
2018-09-13T05:24:48.738Z,109.17
2018-09-13T05:27:17.260Z,103.90
2018-09-13T05:29:45.807Z,100.43
2018-09-13T05:32:14.404Z,117.73
2018-09-13T05:34:45.996Z,125.47
2018-09-13T05:37:14.526Z,102.07
2018-09-13T05:39:43.053Z,101.03
2018-09-13T05:42:11.531Z,91.00
2018-09-13T05:44:40.097Z,142.60
2018-09-13T05:47:08.583Z,211.83
2018-09-13T05:49:37.090Z,251.27
2018-09-13T05:52:05.556Z,276.67
2018-09-13T05:54:34.093Z,297.37
2018-09-13T05:57:02.617Z,317.37
2018-09-13T05:59:31.093Z,330.20
2018-09-13T06:01:59.633Z,323.67
2018-09-13T06:04:28.128Z,342.80
2018-09-13T06:06:56.643Z,429.70
2018-09-13T06:09:31.836Z,480.27
2018-09-13T06:12:00.348Z,511.10
2018-09-13T06:14:28.823Z,516.73
2018-09-13T06:16:57.366Z,559.13
2018-09-13T06:19:25.865Z,563.53
2018-09-13T06:21:55.275Z,559.07
2018-09-13T06:24:23.817Z,555.93
2018-09-13T06:26:52.451Z,522.80
2018-09-13T06:29:21.012Z,543.83
2018-09-13T06:31:49.503Z,480.43
2018-09-13T06:34:18.062Z,471.30
2018-09-13T06:36:46.576Z,450.83
2018-09-13T06:39:15.137Z,436.37
2018-09-13T06:41:43.612Z,395.60
2018-09-13T06:44:12.152Z,480.97
2018-09-13T06:46:40.689Z,580.93
2018-09-13T06:49:09.256Z,590.07
2018-09-13T06:51:37.792Z,657.77
2018-09-13T06:54:06.401Z,618.10
2018-09-13T06:56:34.935Z,646.97
2018-09-13T06:59:03.501Z,607.97
2018-09-13T07:01:32.040Z,623.93
2018-09-13T07:04:00.537Z,628.27
2018-09-13T07:06:29.061Z,614.30
2018-09-13T07:08:57.612Z,622.63
2018-09-13T07:11:26.317Z,628.43
2018-09-13T07:13:55.285Z,643.77
2018-09-13T07:16:23.811Z,684.30
2018-09-13T07:18:52.339Z,687.70
2018-09-13T07:21:20.857Z,688.83
2018-09-13T07:23:49.392Z,644.87
2018-09-13T07:26:17.937Z,569.83
2018-09-13T07:28:46.429Z,500.27
2018-09-13T07:31:14.957Z,497.00
2018-09-13T07:33:43.446Z,440.10
2018-09-13T07:36:11.999Z,355.70
2018-09-13T07:38:40.532Z,182.37
2018-09-13T07:41:09.122Z,152.63
2018-09-13T07:43:37.659Z,142.87
2018-09-13T07:46:12.892Z,131.83
2018-09-13T07:48:41.407Z,174.73
2018-09-13T07:51:09.990Z,165.70
2018-09-13T07:53:38.503Z,197.87
2018-09-13T07:56:07.092Z,242.33
2018-09-13T07:58:35.650Z,382.50
2018-09-13T08:01:04.189Z,435.60
2018-09-13T08:03:32.728Z,482.43
2018-09-13T08:06:01.254Z,513.47
2018-09-13T08:08:29.816Z,529.57
2018-09-13T08:10:58.381Z,532.80
2018-09-13T08:13:26.944Z,538.63
2018-09-13T08:15:55.479Z,428.60
2018-09-13T08:18:23.972Z,408.93
2018-09-13T08:20:52.502Z,417.17
2018-09-13T08:23:21.106Z,362.90
2018-09-13T08:25:49.608Z,330.10
2018-09-13T08:28:24.785Z,336.03
2018-09-13T08:30:53.280Z,314.67
2018-09-13T08:33:21.907Z,372.67
2018-09-13T08:35:50.356Z,324.77
2018-09-13T08:38:18.933Z,203.83
2018-09-13T08:40:47.529Z,202.87
2018-09-13T08:43:16.025Z,127.07
2018-09-13T08:45:44.547Z,83.37
2018-09-13T08:48:13.037Z,67.77
2018-09-13T08:50:41.579Z,98.20
2018-09-13T08:53:10.137Z,138.17
2018-09-13T08:55:38.636Z,102.97
2018-09-13T08:58:07.256Z,118.30
2018-09-13T09:00:35.812Z,186.27
2018-09-13T09:03:04.337Z,230.83
2018-09-13T09:05:32.880Z,200.03
2018-09-13T09:08:01.420Z,218.70
2018-09-13T09:10:29.921Z,220.83
2018-09-13T09:12:58.511Z,344.97
2018-09-13T09:15:27.107Z,385.60
2018-09-13T09:17:55.606Z,421.00
2018-09-13T09:20:24.143Z,342.00
2018-09-13T09:22:52.721Z,303.53
2018-09-13T09:25:21.247Z,357.47
2018-09-13T09:27:49.767Z,587.83
2018-09-13T09:30:18.297Z,616.47
2018-09-13T09:32:46.814Z,579.90
2018-09-13T09:35:15.349Z,513.40
2018-09-13T09:37:43.887Z,508.93
2018-09-13T09:40:12.448Z,604.33
2018-09-13T09:42:41.010Z,347.43
2018-09-13T09:45:09.528Z,226.10
2018-09-13T09:47:38.060Z,235.07
2018-09-13T09:50:06.908Z,214.23
2018-09-13T09:52:35.417Z,215.73
2018-09-13T09:55:03.964Z,246.60
2018-09-13T09:57:32.498Z,421.83
2018-09-13T10:00:01.005Z,224.43
2018-09-13T10:02:29.545Z,274.63
2018-09-13T10:04:58.037Z,245.20
2018-09-13T10:07:26.618Z,336.00
2018-09-13T10:09:55.208Z,389.67
2018-09-13T10:12:23.816Z,380.53
2018-09-13T10:14:57.717Z,242.23
2018-09-13T10:17:31.532Z,364.53
2018-09-13T10:20:05.254Z,569.10
2018-09-13T10:22:39.197Z,694.83
2018-09-13T10:25:12.899Z,554.97
2018-09-13T10:27:46.632Z,667.67
2018-09-13T10:30:20.429Z,474.37
2018-09-13T10:32:54.236Z,654.70
2018-09-13T10:35:27.990Z,628.93
2018-09-13T10:38:01.940Z,608.13
2018-09-13T10:40:35.865Z,289.47
2018-09-13T10:43:09.732Z,571.50
2018-09-13T10:45:43.578Z,651.13
2018-09-13T10:48:17.518Z,488.60
2018-09-13T10:50:51.422Z,522.07
2018-09-13T10:53:22.480Z,342.47
2018-09-13T10:55:51.103Z,475.17
2018-09-13T10:58:19.569Z,596.90
2018-09-13T11:00:48.124Z,596.37
2018-09-13T11:03:16.636Z,629.53
2018-09-13T11:05:45.285Z,636.53
2018-09-13T11:08:14.005Z,681.27
2018-09-13T11:10:42.738Z,668.77
2018-09-13T11:13:20.789Z,667.63
2018-09-13T11:15:49.317Z,680.50
2018-09-13T11:18:19.757Z,508.40
2018-09-13T11:20:48.236Z,726.13
2018-09-13T11:23:16.705Z,483.63
2018-09-13T11:25:45.261Z,687.93
2018-09-13T11:28:13.741Z,470.03
2018-09-13T11:30:42.316Z,638.83
2018-09-13T11:33:10.744Z,625.93
2018-09-13T11:35:39.259Z,451.60
2018-09-13T11:38:07.810Z,507.80
2018-09-13T11:40:36.499Z,496.77
2018-09-13T11:43:04.895Z,699.40
2018-09-13T11:45:33.372Z,628.50
2018-09-13T11:48:01.817Z,794.03
2018-09-13T11:50:30.321Z,559.50
2018-09-13T11:52:58.764Z,558.10
2018-09-13T11:55:27.348Z,530.90
2018-09-13T11:57:55.844Z,779.93
2018-09-13T12:00:24.330Z,672.87
2018-09-13T12:02:52.837Z,734.20
2018-09-13T12:05:27.867Z,465.10
2018-09-13T12:07:56.387Z,658.80
2018-09-13T12:10:24.870Z,600.50
2018-09-13T12:12:53.385Z,735.17
2018-09-13T12:15:21.895Z,526.20
2018-09-13T12:17:50.468Z,789.63
2018-09-13T12:20:18.875Z,569.67
2018-09-13T12:22:47.370Z,795.63
2018-09-13T12:25:15.893Z,844.80
2018-09-13T12:27:44.505Z,785.50
2018-09-13T12:30:13.061Z,740.80
2018-09-13T12:32:41.878Z,829.17
2018-09-13T12:35:10.407Z,734.83
2018-09-13T12:37:38.925Z,705.50
2018-09-13T12:40:08.046Z,833.77
2018-09-13T12:42:36.586Z,827.13
2018-09-13T12:45:05.211Z,822.00
2018-09-13T12:47:33.734Z,818.40
2018-09-13T12:50:02.328Z,768.63
2018-09-13T12:52:30.839Z,593.63
2018-09-13T12:54:59.391Z,679.03
2018-09-13T12:57:27.893Z,788.87
2018-09-13T12:59:56.492Z,788.60
2018-09-13T13:02:25.021Z,787.20
2018-09-13T13:04:53.589Z,642.33
2018-09-13T13:07:22.068Z,602.43
2018-09-13T13:09:50.548Z,646.47
2018-09-13T13:12:19.032Z,615.67
2018-09-13T13:14:47.565Z,727.40
2018-09-13T13:17:16.011Z,687.03
2018-09-13T13:19:44.513Z,666.17
2018-09-13T13:22:13.016Z,633.90
2018-09-13T13:24:41.560Z,661.13
2018-09-13T13:27:10.156Z,620.33
2018-09-13T13:29:38.896Z,631.63
2018-09-13T13:32:07.450Z,584.93
2018-09-13T13:34:36.077Z,525.67
2018-09-13T13:37:04.645Z,513.67
2018-09-13T13:39:33.200Z,525.00
2018-09-13T13:42:01.727Z,515.90
2018-09-13T13:44:30.199Z,523.43
2018-09-13T13:46:58.738Z,502.77
2018-09-13T13:49:27.316Z,525.60
2018-09-13T13:51:55.812Z,549.13
2018-09-13T13:54:24.320Z,541.10
2018-09-13T13:56:52.868Z,522.43
2018-09-13T13:59:21.354Z,534.27
2018-09-13T14:01:49.876Z,494.70
2018-09-13T14:04:18.394Z,524.20
2018-09-13T14:06:46.926Z,500.83
2018-09-13T14:09:15.453Z,468.20
2018-09-13T14:11:43.963Z,522.53
2018-09-13T14:14:12.473Z,516.23
2018-09-13T14:16:40.963Z,473.63
2018-09-13T14:19:09.513Z,555.07
2018-09-13T14:21:37.991Z,504.50
2018-09-13T14:24:06.614Z,499.07
2018-09-13T14:26:35.116Z,509.10
2018-09-13T14:29:03.658Z,525.23
2018-09-13T14:31:32.168Z,511.23
2018-09-13T14:34:00.668Z,474.83
2018-09-13T14:36:29.184Z,478.90
2018-09-13T14:38:57.680Z,468.57
2018-09-13T14:41:26.199Z,481.83
2018-09-13T14:43:54.741Z,493.63
2018-09-13T14:46:23.236Z,513.17
2018-09-13T14:48:51.740Z,506.53
2018-09-13T14:51:20.200Z,501.57
2018-09-13T14:53:48.751Z,451.07
2018-09-13T14:56:17.307Z,477.60
2018-09-13T14:58:45.761Z,488.00
2018-09-13T15:01:14.321Z,472.37
2018-09-13T15:03:42.877Z,466.57
2018-09-13T15:06:11.419Z,497.03
2018-09-13T15:08:39.909Z,481.73
2018-09-13T15:11:08.417Z,469.27
2018-09-13T15:13:36.930Z,487.70
2018-09-13T15:16:05.423Z,484.30
2018-09-13T15:18:33.938Z,456.87
2018-09-13T15:21:02.400Z,454.37
2018-09-13T15:23:30.883Z,462.73
2018-09-13T15:26:00.288Z,462.03
2018-09-13T15:28:28.804Z,431.87
2018-09-13T15:30:57.394Z,455.73
2018-09-13T15:33:25.897Z,453.87
2018-09-13T15:35:54.403Z,446.00
2018-09-13T15:38:22.874Z,449.17
2018-09-13T15:40:51.385Z,437.40
2018-09-13T15:43:19.942Z,433.80
2018-09-13T15:45:48.503Z,463.90
2018-09-13T15:48:17.033Z,445.50
2018-09-13T15:50:45.506Z,473.87
2018-09-13T15:53:14.029Z,488.77
2018-09-13T15:55:42.535Z,508.63
2018-09-13T15:58:10.999Z,491.77
2018-09-13T16:00:39.554Z,501.77
2018-09-13T16:03:08.076Z,499.07
2018-09-13T16:05:36.720Z,488.37
2018-09-13T16:08:05.317Z,473.97
2018-09-13T16:10:33.925Z,483.80
2018-09-13T16:13:05.519Z,465.60
2018-09-13T16:15:33.928Z,542.50
2018-09-13T16:18:02.445Z,726.20
2018-09-13T16:20:31.014Z,692.70
2018-09-13T16:22:59.499Z,664.90
2018-09-13T16:25:28.070Z,674.57
2018-09-13T16:27:56.632Z,621.50
2018-09-13T16:30:25.151Z,628.73
2018-09-13T16:32:53.676Z,575.80
2018-09-13T16:35:22.184Z,637.43
2018-09-13T16:37:55.967Z,670.27
2018-09-13T16:40:29.848Z,674.17
2018-09-13T16:43:03.750Z,709.03
2018-09-13T16:45:32.277Z,717.97
2018-09-13T16:48:02.268Z,723.73
2018-09-13T16:50:30.801Z,726.57
2018-09-13T16:52:59.344Z,640.70
2018-09-13T16:55:27.903Z,546.03
2018-09-13T16:57:56.378Z,515.23
2018-09-13T17:00:26.030Z,518.47
2018-09-13T17:02:54.969Z,548.33
2018-09-13T17:05:23.547Z,633.90
2018-09-13T17:07:52.216Z,666.80
2018-09-13T17:10:20.696Z,657.57
2018-09-13T17:12:49.224Z,573.97
2018-09-13T17:15:17.787Z,571.60
2018-09-13T17:17:46.334Z,534.77
2018-09-13T17:20:14.970Z,449.07
2018-09-13T17:22:43.492Z,465.63
2018-09-13T17:25:11.970Z,399.63
2018-09-13T17:27:40.480Z,354.17
2018-09-13T17:30:09.049Z,295.70
2018-09-13T17:32:37.580Z,262.97
2018-09-13T17:35:06.092Z,280.57
2018-09-13T17:37:34.611Z,348.03
2018-09-13T17:40:03.179Z,362.70
2018-09-13T17:42:31.649Z,371.13
2018-09-13T17:45:00.170Z,348.97
2018-09-13T17:47:28.713Z,316.20
2018-09-13T17:49:57.262Z,224.67
2018-09-13T17:52:25.908Z,195.03
2018-09-13T17:54:54.438Z,176.03
2018-09-13T17:57:22.965Z,181.10
2018-09-13T17:59:51.464Z,182.60
2018-09-13T18:02:20.010Z,197.10
2018-09-13T18:04:48.492Z,194.00
2018-09-13T18:07:17.040Z,211.23
2018-09-13T18:09:45.540Z,217.77
2018-09-13T18:12:14.076Z,285.33
2018-09-13T18:14:42.564Z,298.90
2018-09-13T18:17:11.093Z,295.73
2018-09-13T18:19:39.571Z,303.80
2018-09-13T18:22:08.110Z,313.77
2018-09-13T18:24:36.654Z,371.40
2018-09-13T18:27:05.225Z,379.73
2018-09-13T18:29:33.703Z,420.27
2018-09-13T18:32:02.196Z,464.73
2018-09-13T18:34:30.757Z,444.40
2018-09-13T18:36:59.261Z,495.40
2018-09-13T18:39:27.788Z,532.30
2018-09-13T18:41:56.259Z,553.07
2018-09-13T18:44:24.841Z,566.07
2018-09-13T18:46:53.360Z,549.87
2018-09-13T18:49:21.888Z,504.50
2018-09-13T18:51:50.392Z,491.17
2018-09-13T18:54:19.061Z,417.30
2018-09-13T18:56:47.559Z,279.97
2018-09-13T18:59:16.114Z,231.50
2018-09-13T19:01:44.609Z,167.10
2018-09-13T19:04:13.187Z,155.20
2018-09-13T19:06:41.701Z,144.47
2018-09-13T19:09:11.055Z,146.40
2018-09-13T19:11:39.659Z,157.57
2018-09-13T19:14:08.145Z,142.90
2018-09-13T19:16:36.628Z,170.83
2018-09-13T19:19:05.208Z,174.50
2018-09-13T19:21:33.677Z,171.97
2018-09-13T19:24:02.497Z,179.53
2018-09-13T19:26:30.985Z,193.60
2018-09-13T19:28:59.544Z,247.50
2018-09-13T19:31:28.047Z,277.63
2018-09-13T19:33:56.602Z,302.87
2018-09-13T19:36:25.128Z,313.93
2018-09-13T19:38:53.708Z,359.43
2018-09-13T19:41:22.258Z,423.63
2018-09-13T19:43:50.896Z,432.57
2018-09-13T19:46:19.460Z,403.07
2018-09-13T19:48:48.052Z,415.47
2018-09-13T19:51:16.667Z,362.67
2018-09-13T19:53:45.138Z,320.53
2018-09-13T19:56:13.752Z,304.53
2018-09-13T19:58:42.313Z,286.67
2018-09-13T20:01:10.839Z,303.83
2018-09-13T20:03:39.529Z,350.13
2018-09-13T20:06:08.064Z,381.70
2018-09-13T20:08:36.563Z,468.43
2018-09-13T20:11:05.073Z,493.10
2018-09-13T20:13:33.633Z,484.20
2018-09-13T20:16:02.169Z,439.10
2018-09-13T20:18:30.732Z,525.33
2018-09-13T20:20:59.249Z,508.80
2018-09-13T20:23:27.773Z,486.87
2018-09-13T20:25:56.637Z,461.07
2018-09-13T20:28:25.332Z,383.97
2018-09-13T20:30:53.807Z,306.13
2018-09-13T20:33:22.282Z,228.80
2018-09-13T20:35:50.774Z,240.40
2018-09-13T20:38:19.279Z,241.70
2018-09-13T20:40:47.798Z,217.33
2018-09-13T20:43:16.631Z,212.80
2018-09-13T20:45:45.284Z,201.47
2018-09-13T20:48:13.787Z,158.27
2018-09-13T20:50:42.371Z,149.20
2018-09-13T20:53:10.885Z,128.20
2018-09-13T20:55:39.375Z,110.07
2018-09-13T20:58:07.922Z,101.47
2018-09-13T21:00:36.507Z,113.70
2018-09-13T21:03:05.009Z,87.27
2018-09-13T21:05:33.529Z,89.37
2018-09-13T21:08:02.049Z,93.53
2018-09-13T21:10:30.568Z,74.77
2018-09-13T21:12:59.043Z,76.43
2018-09-13T21:15:27.588Z,78.00
2018-09-13T21:17:56.058Z,75.33
2018-09-13T21:20:24.591Z,84.63
2018-09-13T21:22:53.056Z,79.90
2018-09-13T21:25:21.692Z,71.23
2018-09-13T21:27:50.291Z,56.03
2018-09-13T21:30:18.832Z,47.80
2018-09-13T21:32:47.397Z,38.50
2018-09-13T21:35:15.816Z,42.17
2018-09-13T21:37:45.273Z,58.43
2018-09-13T21:40:13.753Z,65.37
2018-09-13T21:42:42.333Z,90.53
2018-09-13T21:45:11.407Z,128.37
2018-09-13T21:47:40.530Z,156.47
2018-09-13T21:50:09.048Z,161.17
2018-09-13T21:52:39.670Z,197.40
2018-09-13T21:55:08.462Z,238.73
2018-09-13T21:57:37.009Z,251.27
2018-09-13T22:00:08.738Z,273.27
2018-09-13T22:02:37.371Z,301.87
2018-09-13T22:05:07.888Z,298.47
2018-09-13T22:07:39.084Z,269.93
2018-09-13T22:10:07.606Z,233.87
2018-09-13T22:12:36.142Z,250.53
2018-09-13T22:15:05.961Z,240.60
2018-09-13T22:17:35.832Z,244.07
2018-09-13T22:20:06.581Z,245.97
2018-09-13T22:22:35.446Z,246.97
2018-09-13T22:25:05.481Z,243.63
2018-09-13T22:27:34.920Z,184.63
2018-09-13T22:30:03.585Z,135.43
2018-09-13T22:32:34.084Z,116.07
2018-09-13T22:35:04.285Z,104.17
2018-09-13T22:37:34.873Z,86.37
2018-09-13T22:40:04.006Z,77.33
2018-09-13T22:42:32.584Z,85.43
2018-09-13T22:45:01.210Z,86.93
2018-09-13T22:47:30.612Z,82.17
2018-09-13T22:49:59.760Z,72.47
2018-09-13T22:52:28.314Z,70.03
2018-09-13T22:54:57.090Z,72.60
2018-09-13T22:57:28.115Z,77.80
2018-09-13T22:59:56.633Z,83.47
2018-09-13T23:02:25.104Z,95.23
2018-09-13T23:04:53.658Z,108.67
2018-09-13T23:07:23.573Z,124.20
2018-09-13T23:09:52.648Z,151.67
2018-09-13T23:12:21.719Z,147.20
2018-09-13T23:14:50.247Z,160.77
2018-09-13T23:17:18.797Z,165.30
2018-09-13T23:19:47.524Z,165.77
2018-09-13T23:22:15.964Z,176.20
2018-09-13T23:24:44.460Z,176.07
2018-09-13T23:27:12.907Z,187.90
2018-09-13T23:29:41.399Z,217.03
2018-09-13T23:32:09.880Z,252.77
2018-09-13T23:34:38.368Z,249.07
2018-09-13T23:37:06.852Z,263.90
2018-09-13T23:39:35.569Z,278.77
2018-09-13T23:42:03.926Z,272.17
2018-09-13T23:44:32.454Z,284.07
2018-09-13T23:47:01.036Z,339.97
2018-09-13T23:49:29.489Z,368.00
2018-09-13T23:51:58.009Z,366.33
2018-09-13T23:54:26.517Z,354.70
2018-09-13T23:56:54.973Z,362.83
2018-09-13T23:59:23.603Z,350.37
